Clipper Saga — LAFY6 — position and weather

sailwx.info

Track history (hours):
 
Tides and Currents Weather Stations Pressure Air Temp Water Temp Dewpoint Dewpoint Depression Visibility Wind Speed Wind Dir Waves Ship Positions

Clipper Saga

Last reported at 2015-May-03 17:32 UTC. Time now 2015-May-03 17:54 UTC.
Position N 54°12' E 007°07'.

Length 89 m; draft 5.9 m.

Type: Ship (hazmat cat C). MMSI: 246657008.

Date/timePositionNaut miles runAvg speedWind from/ knotsBaromVisibWave heightAir tempDewpointWater temp
2015-May-03 17:32N 54°12' E 007°07'9 8.8
2015-May-03 16:33N 54°12' E 007°22'8 8.0
2015-May-03 15:33N 54°07' E 007°33'1111.2
2015-May-03 14:33N 53°57' E 007°42'1312.7
2015-May-03 13:33N 53°49' E 007°58'1211.5
2015-May-03 12:33N 53°38' E 008°07'0 0.0
2015-May-03 11:13N 53°38' E 008°07'0 0.0
2015-May-03 10:31N 53°38' E 008°07'0 0.0
2015-May-03 09:22N 53°38' E 008°07'0 0.0
2015-May-03 08:31N 53°38' E 008°07'0 0.0
2015-May-03 07:28N 53°38' E 008°07'0 0.0
2015-May-03 06:28N 53°38' E 008°07'0 0.0
2015-May-03 05:31N 53°38' E 008°07'0 0.0
2015-May-03 04:31N 53°38' E 008°07'0 0.0
2015-May-03 03:28N 53°38' E 008°07'0 0.0
2015-May-03 02:10N 53°38' E 008°07'0 0.0
2015-May-03 01:10N 53°38' E 008°07'0 0.0
2015-May-03 00:31N 53°38' E 008°07'0 0.1
2015-May-02 23:33N 53°38' E 008°06'7 6.6
2015-May-02 22:33N 53°45' E 008°03'1111.0
2015-May-02 21:33N 53°52' E 007°49'1111.3
2015-May-02 20:33N 53°54' E 007°30'4812.0
2015-May-02 16:33N 53°43' E 006°11'1111.2
2015-May-02 15:33N 53°39' E 005°53'1110.7
2015-May-02 14:33N 53°36' E 005°36'1010.0
2015-May-02 13:33N 53°33' E 005°20'10 9.6
2015-May-02 12:33N 53°30' E 005°05'10 9.6
2015-May-02 11:33N 53°26' E 004°50'9 9.3
2015-May-02 10:32N 53°19' E 004°38'19 9.7
2015-May-02 08:32N 53°02' E 004°24'1010.2
2015-May-02 07:33N 52°53' E 004°17'1110.5
2015-May-02 06:33N 52°44' E 004°08'1110.9
2015-May-02 05:33N 52°37' E 003°54'8412.0
2015-May-01 22:33N 51°35' E 002°22'1111.3
2015-May-01 21:33N 51°26' E 002°11'1010.5
2015-May-01 20:33N 51°16' E 002°06'9 9.3
2015-May-01 19:33N 51°10' E 001°53'8 8.3
2015-May-01 18:33N 51°05' E 001°44'8 7.7
2015-May-01 17:34N 50°59' E 001°35'  
2015-Apr-29 11:33N 53°34' W 003°57'1111.5
2015-Apr-29 10:33N 53°33' W 003°38'1111.2
2015-Apr-29 09:33N 53°32' W 003°19'8 7.8
2015-Apr-29 08:33N 53°31' W 003°06'1010.1
2015-Apr-29 07:33N 53°22' W 002°58'3 2.7
2015-Apr-29 06:31N 53°19' W 002°57'0 0.0
2015-Apr-29 05:28N 53°19' W 002°57'0 0.0
2015-Apr-29 04:16N 53°19' W 002°57'0 0.0
2015-Apr-29 03:32N 53°19' W 002°57'0 0.0
2015-Apr-29 02:22N 53°19' W 002°57'0 0.0
2015-Apr-29 01:31N 53°19' W 002°57'0 0.0
2015-Apr-28 23:25N 53°19' W 002°57'0 0.0
2015-Apr-28 22:26N 53°19' W 002°57'0 0.0
2015-Apr-28 21:16N 53°19' W 002°57'0 0.0
2015-Apr-28 20:07N 53°19' W 002°57'0 0.0
2015-Apr-28 19:19N 53°19' W 002°57'0 0.0
2015-Apr-28 18:13N 53°19' W 002°57'0 0.0
2015-Apr-28 17:31N 53°19' W 002°57'0 0.0
2015-Apr-28 16:07N 53°19' W 002°57'0 0.0
2015-Apr-28 12:19N 53°19' W 002°57'0 0.0
2015-Apr-28 11:31N 53°19' W 002°57'0 0.0
2015-Apr-28 10:28N 53°19' W 002°57'0 0.0
2015-Apr-28 09:22N 53°19' W 002°57'0 0.0
2015-Apr-28 08:28N 53°19' W 002°57'0 0.0
2015-Apr-28 07:28N 53°19' W 002°57'0 0.0
2015-Apr-28 06:25N 53°19' W 002°57'0 0.0
2015-Apr-28 05:25N 53°19' W 002°57'0 0.0
2015-Apr-28 04:25N 53°19' W 002°57'0 0.0
2015-Apr-28 03:31N 53°19' W 002°57'0 0.0
2015-Apr-28 02:31N 53°19' W 002°57'0 0.0
2015-Apr-28 01:31N 53°19' W 002°57'0 0.0
2015-Apr-28 00:31N 53°19' W 002°57'0 0.0
2015-Apr-27 23:31N 53°19' W 002°57'0 0.0
2015-Apr-27 22:28N 53°19' W 002°57'0 0.0
2015-Apr-27 21:33N 53°19' W 002°57'0 0.0
2015-Apr-27 20:33N 53°19' W 002°57'0 0.1
2015-Apr-27 19:33N 53°19' W 002°57'1 1.4
2015-Apr-27 18:33N 53°21' W 002°58'6 6.4
2015-Apr-27 17:33N 53°27' W 003°02'8 8.2
2015-Apr-27 16:33N 53°31' W 003°13'7 6.8
2015-Apr-27 15:33N 53°31' W 003°25'5 5.3
2015-Apr-27 14:33N 53°31' W 003°34'7 6.8
2015-Apr-27 13:33N 53°31' W 003°45'7 6.7
2015-Apr-27 12:31N 53°30' W 003°57'13710.4
2015-Apr-26 23:15N 51°51' W 006°33'911.8
2015-Apr-26 22:28N 51°47' W 006°47'1211.3
2015-Apr-26 21:22N 51°45' W 007°07'1012.0
2015-Apr-26 20:33N 51°43' W 007°22'1212.2
2015-Apr-26 19:33N 51°39' W 007°41'1212.4
2015-Apr-26 18:33N 51°36' W 008°00'1212.2
2015-Apr-26 17:33N 51°45' W 008°14'8 7.7
2015-Apr-26 16:33N 51°52' W 008°20'5 5.2
2015-Apr-26 15:33N 51°54' W 008°27'0 0.0
2015-Apr-26 14:33N 51°54' W 008°27'0 0.0
2015-Apr-26 13:31N 51°54' W 008°27'0 0.0
2015-Apr-26 12:31N 51°54' W 008°27'0 0.0
2015-Apr-26 11:31N 51°54' W 008°27'0 0.0
2015-Apr-26 10:31N 51°54' W 008°27'0 0.0
2015-Apr-26 09:31N 51°54' W 008°27'0 0.0
2015-Apr-26 08:31N 51°54' W 008°27'0 0.0
2015-Apr-26 07:31N 51°54' W 008°27'0 0.0
2015-Apr-26 06:31N 51°54' W 008°27'0 0.0
2015-Apr-26 05:31N 51°54' W 008°27'0 0.0
2015-Apr-26 04:31N 51°54' W 008°27'3 2.9
2015-Apr-26 03:33N 51°54' W 008°23'6 5.7
2015-Apr-26 02:33N 51°49' W 008°16'9 8.6
2015-Apr-26 01:33N 51°42' W 008°10'1111.2
2015-Apr-26 00:33N 51°34' W 007°57'1211.3
2015-Apr-25 23:31N 51°26' W 007°43'185 9.3
2015-Apr-25 03:33N 50°04' W 003°21'1211.4
2015-Apr-25 02:32N 50°07' W 003°04'8210.2
2015-Apr-24 18:30N 50°24' W 000°58'4811.9
2015-Apr-24 14:26N 50°35' E 000°16'910.1
2015-Apr-24 13:33N 50°37' E 000°29'10 9.9
2015-Apr-24 12:33N 50°42' E 000°43'1110.8
2015-Apr-24 11:33N 50°49' E 000°57'1312.2
2015-Apr-24 10:32N 50°56' E 001°12'1313.6
2015-Apr-24 09:33N 51°05' E 001°29'1312.7
2015-Apr-24 08:33N 51°13' E 001°44'1111.4
2015-Apr-24 07:34N 51°22' E 001°54'1010.3
2015-Apr-24 06:33N 51°30' E 002°05'10 9.8
2015-Apr-24 05:33N 51°38' E 002°15'10 9.7
2015-Apr-24 04:33N 51°45' E 002°26'1210.4
2015-Apr-24 03:23N 51°54' E 002°39'1011.4
2015-Apr-24 02:29N 52°02' E 002°50'1111.7
2015-Apr-24 01:31N 52°02' E 003°08'1212.1
2015-Apr-24 00:33N 52°03' E 003°27'1312.6
2015-Apr-23 23:33N 52°03' E 003°48'1211.8
2015-Apr-23 22:33N 51°59' E 004°06'6 5.6
2015-Apr-23 21:31N 51°55' E 004°13'0 0.0
2015-Apr-23 20:31N 51°55' E 004°13'0 0.0
2015-Apr-23 19:28N 51°55' E 004°13'0 0.0
2015-Apr-23 18:31N 51°55' E 004°13'  
Track history (hours):
 
Tides and Currents Weather Stations Pressure Air Temp Water Temp Dewpoint Dewpoint Depression Visibility Wind Speed Wind Dir Waves Ship Positions

Clipper Saga

Last reported at 2015-May-03 17:32 UTC. Time now 2015-May-03 17:54 UTC.
Position N 54°12' E 007°07'.

Length 89 m; draft 5.9 m.

Type: Ship (hazmat cat C). MMSI: 246657008.

Date/timePositionNaut miles runAvg speedWind from/ knotsBaromVisibWave heightAir tempDewpointWater temp
2015-May-03 17:32N 54°12' E 007°07'9 8.8
2015-May-03 16:33N 54°12' E 007°22'8 8.0
2015-May-03 15:33N 54°07' E 007°33'1111.2
2015-May-03 14:33N 53°57' E 007°42'1312.7
2015-May-03 13:33N 53°49' E 007°58'1211.5
2015-May-03 12:33N 53°38' E 008°07'0 0.0
2015-May-03 11:13N 53°38' E 008°07'0 0.0
2015-May-03 10:31N 53°38' E 008°07'0 0.0
2015-May-03 09:22N 53°38' E 008°07'0 0.0
2015-May-03 08:31N 53°38' E 008°07'0 0.0
2015-May-03 07:28N 53°38' E 008°07'0 0.0
2015-May-03 06:28N 53°38' E 008°07'0 0.0
2015-May-03 05:31N 53°38' E 008°07'0 0.0
2015-May-03 04:31N 53°38' E 008°07'0 0.0
2015-May-03 03:28N 53°38' E 008°07'0 0.0
2015-May-03 02:10N 53°38' E 008°07'0 0.0
2015-May-03 01:10N 53°38' E 008°07'0 0.0
2015-May-03 00:31N 53°38' E 008°07'0 0.1
2015-May-02 23:33N 53°38' E 008°06'7 6.6
2015-May-02 22:33N 53°45' E 008°03'1111.0
2015-May-02 21:33N 53°52' E 007°49'1111.3
2015-May-02 20:33N 53°54' E 007°30'4812.0
2015-May-02 16:33N 53°43' E 006°11'1111.2
2015-May-02 15:33N 53°39' E 005°53'1110.7
2015-May-02 14:33N 53°36' E 005°36'1010.0
2015-May-02 13:33N 53°33' E 005°20'10 9.6
2015-May-02 12:33N 53°30' E 005°05'10 9.6
2015-May-02 11:33N 53°26' E 004°50'9 9.3
2015-May-02 10:32N 53°19' E 004°38'19 9.7
2015-May-02 08:32N 53°02' E 004°24'1010.2
2015-May-02 07:33N 52°53' E 004°17'1110.5
2015-May-02 06:33N 52°44' E 004°08'1110.9
2015-May-02 05:33N 52°37' E 003°54'8412.0
2015-May-01 22:33N 51°35' E 002°22'1111.3
2015-May-01 21:33N 51°26' E 002°11'1010.5
2015-May-01 20:33N 51°16' E 002°06'9 9.3
2015-May-01 19:33N 51°10' E 001°53'8 8.3
2015-May-01 18:33N 51°05' E 001°44'8 7.7
2015-May-01 17:34N 50°59' E 001°35'  
2015-Apr-29 11:33N 53°34' W 003°57'1111.5
2015-Apr-29 10:33N 53°33' W 003°38'1111.2
2015-Apr-29 09:33N 53°32' W 003°19'8 7.8
2015-Apr-29 08:33N 53°31' W 003°06'1010.1
2015-Apr-29 07:33N 53°22' W 002°58'3 2.7
2015-Apr-29 06:31N 53°19' W 002°57'0 0.0
2015-Apr-29 05:28N 53°19' W 002°57'0 0.0
2015-Apr-29 04:16N 53°19' W 002°57'0 0.0
2015-Apr-29 03:32N 53°19' W 002°57'0 0.0
2015-Apr-29 02:22N 53°19' W 002°57'0 0.0
2015-Apr-29 01:31N 53°19' W 002°57'0 0.0
2015-Apr-28 23:25N 53°19' W 002°57'0 0.0
2015-Apr-28 22:26N 53°19' W 002°57'0 0.0
2015-Apr-28 21:16N 53°19' W 002°57'0 0.0
2015-Apr-28 20:07N 53°19' W 002°57'0 0.0
2015-Apr-28 19:19N 53°19' W 002°57'0 0.0
2015-Apr-28 18:13N 53°19' W 002°57'0 0.0
2015-Apr-28 17:31N 53°19' W 002°57'0 0.0
2015-Apr-28 16:07N 53°19' W 002°57'0 0.0
2015-Apr-28 12:19N 53°19' W 002°57'0 0.0
2015-Apr-28 11:31N 53°19' W 002°57'0 0.0
2015-Apr-28 10:28N 53°19' W 002°57'0 0.0
2015-Apr-28 09:22N 53°19' W 002°57'0 0.0
2015-Apr-28 08:28N 53°19' W 002°57'0 0.0
2015-Apr-28 07:28N 53°19' W 002°57'0 0.0
2015-Apr-28 06:25N 53°19' W 002°57'0 0.0
2015-Apr-28 05:25N 53°19' W 002°57'0 0.0
2015-Apr-28 04:25N 53°19' W 002°57'0 0.0
2015-Apr-28 03:31N 53°19' W 002°57'0 0.0
2015-Apr-28 02:31N 53°19' W 002°57'0 0.0
2015-Apr-28 01:31N 53°19' W 002°57'0 0.0
2015-Apr-28 00:31N 53°19' W 002°57'0 0.0
2015-Apr-27 23:31N 53°19' W 002°57'0 0.0
2015-Apr-27 22:28N 53°19' W 002°57'0 0.0
2015-Apr-27 21:33N 53°19' W 002°57'0 0.0
2015-Apr-27 20:33N 53°19' W 002°57'0 0.1
2015-Apr-27 19:33N 53°19' W 002°57'1 1.4
2015-Apr-27 18:33N 53°21' W 002°58'6 6.4
2015-Apr-27 17:33N 53°27' W 003°02'8 8.2
2015-Apr-27 16:33N 53°31' W 003°13'7 6.8
2015-Apr-27 15:33N 53°31' W 003°25'5 5.3
2015-Apr-27 14:33N 53°31' W 003°34'7 6.8
2015-Apr-27 13:33N 53°31' W 003°45'7 6.7
2015-Apr-27 12:31N 53°30' W 003°57'13710.4
2015-Apr-26 23:15N 51°51' W 006°33'911.8
2015-Apr-26 22:28N 51°47' W 006°47'1211.3
2015-Apr-26 21:22N 51°45' W 007°07'1012.0
2015-Apr-26 20:33N 51°43' W 007°22'1212.2
2015-Apr-26 19:33N 51°39' W 007°41'1212.4
2015-Apr-26 18:33N 51°36' W 008°00'1212.2
2015-Apr-26 17:33N 51°45' W 008°14'8 7.7
2015-Apr-26 16:33N 51°52' W 008°20'5 5.2
2015-Apr-26 15:33N 51°54' W 008°27'0 0.0
2015-Apr-26 14:33N 51°54' W 008°27'0 0.0
2015-Apr-26 13:31N 51°54' W 008°27'0 0.0
2015-Apr-26 12:31N 51°54' W 008°27'0 0.0
2015-Apr-26 11:31N 51°54' W 008°27'0 0.0
2015-Apr-26 10:31N 51°54' W 008°27'0 0.0
2015-Apr-26 09:31N 51°54' W 008°27'0 0.0
2015-Apr-26 08:31N 51°54' W 008°27'0 0.0
2015-Apr-26 07:31N 51°54' W 008°27'0 0.0
2015-Apr-26 06:31N 51°54' W 008°27'0 0.0
2015-Apr-26 05:31N 51°54' W 008°27'0 0.0
2015-Apr-26 04:31N 51°54' W 008°27'3 2.9
2015-Apr-26 03:33N 51°54' W 008°23'6 5.7
2015-Apr-26 02:33N 51°49' W 008°16'9 8.6
2015-Apr-26 01:33N 51°42' W 008°10'1111.2
2015-Apr-26 00:33N 51°34' W 007°57'1211.3
2015-Apr-25 23:31N 51°26' W 007°43'185 9.3
2015-Apr-25 03:33N 50°04' W 003°21'1211.4
2015-Apr-25 02:32N 50°07' W 003°04'8210.2
2015-Apr-24 18:30N 50°24' W 000°58'4811.9
2015-Apr-24 14:26N 50°35' E 000°16'910.1
2015-Apr-24 13:33N 50°37' E 000°29'10 9.9
2015-Apr-24 12:33N 50°42' E 000°43'1110.8
2015-Apr-24 11:33N 50°49' E 000°57'1312.2
2015-Apr-24 10:32N 50°56' E 001°12'1313.6
2015-Apr-24 09:33N 51°05' E 001°29'1312.7
2015-Apr-24 08:33N 51°13' E 001°44'1111.4
2015-Apr-24 07:34N 51°22' E 001°54'1010.3
2015-Apr-24 06:33N 51°30' E 002°05'10 9.8
2015-Apr-24 05:33N 51°38' E 002°15'10 9.7
2015-Apr-24 04:33N 51°45' E 002°26'1210.4
2015-Apr-24 03:23N 51°54' E 002°39'1011.4
2015-Apr-24 02:29N 52°02' E 002°50'1111.7
2015-Apr-24 01:31N 52°02' E 003°08'1212.1
2015-Apr-24 00:33N 52°03' E 003°27'1312.6
2015-Apr-23 23:33N 52°03' E 003°48'1211.8
2015-Apr-23 22:33N 51°59' E 004°06'6 5.6
2015-Apr-23 21:31N 51°55' E 004°13'0 0.0
2015-Apr-23 20:31N 51°55' E 004°13'0 0.0
2015-Apr-23 19:28N 51°55' E 004°13'0 0.0
2015-Apr-23 18:31N 51°55' E 004°13'  

Dump ship's entire track history